createdAt,value
2023-03-11T00:00:55.422Z,2.00
2023-03-11T00:03:25.717Z,1.97
2023-03-11T00:05:53.857Z,2.20
2023-03-11T00:08:23.428Z,1.97
2023-03-11T00:10:55.831Z,2.30
2023-03-11T00:13:23.004Z,1.93
2023-03-11T00:15:52.098Z,1.67
2023-03-11T00:18:18.892Z,2.00
2023-03-11T00:20:47.326Z,1.50
2023-03-11T00:23:15.749Z,1.60
2023-03-11T00:25:44.568Z,1.70
2023-03-11T00:28:11.993Z,1.47
2023-03-11T00:30:41.360Z,1.40
2023-03-11T00:33:08.954Z,1.70
2023-03-11T00:35:36.228Z,1.60
2023-03-11T00:38:06.255Z,1.47
2023-03-11T00:40:35.405Z,1.70
2023-03-11T00:43:03.437Z,1.33
2023-03-11T00:45:31.092Z,1.50
2023-03-11T00:47:58.003Z,1.57
2023-03-11T00:50:28.137Z,1.40
2023-03-11T00:52:55.446Z,1.70
2023-03-11T00:55:25.492Z,2.20
2023-03-11T00:57:53.885Z,1.40
2023-03-11T01:00:22.640Z,1.93
2023-03-11T01:02:49.936Z,1.97
2023-03-11T01:05:19.431Z,3.00
2023-03-11T01:07:46.153Z,2.27
2023-03-11T01:10:13.380Z,2.27
2023-03-11T01:12:40.513Z,1.93
2023-03-11T01:15:08.478Z,3.83
2023-03-11T01:17:35.255Z,1.97
2023-03-11T01:20:02.164Z,1.60
2023-03-11T01:22:28.884Z,2.57
2023-03-11T01:24:55.619Z,1.30
2023-03-11T01:27:22.350Z,1.17
2023-03-11T01:29:49.098Z,1.30
2023-03-11T01:32:15.934Z,1.40
2023-03-11T01:34:42.662Z,1.40
2023-03-11T01:37:09.404Z,1.47
2023-03-11T01:39:36.180Z,1.90
2023-03-11T01:42:03.117Z,1.50
2023-03-11T01:44:29.861Z,1.40
2023-03-11T01:46:59.664Z,1.60
2023-03-11T01:49:26.611Z,1.37
2023-03-11T01:52:00.201Z,1.80
2023-03-11T01:54:38.383Z,1.60
2023-03-11T01:57:08.266Z,1.43
2023-03-11T01:59:40.524Z,1.50
2023-03-11T02:02:14.867Z,1.70
2023-03-11T02:04:42.519Z,1.57
2023-03-11T02:07:14.184Z,1.50
2023-03-11T02:09:40.933Z,1.73
2023-03-11T02:12:10.434Z,1.70
2023-03-11T02:14:41.941Z,1.70
2023-03-11T02:17:09.043Z,2.00
2023-03-11T02:20:06.313Z,1.70
2023-03-11T02:22:33.707Z,1.93
2023-03-11T02:25:00.330Z,1.90
2023-03-11T02:27:28.870Z,1.77
2023-03-11T02:29:56.895Z,2.10
2023-03-11T02:32:24.372Z,1.80
2023-03-11T02:34:51.220Z,1.90
2023-03-11T02:37:18.723Z,1.97
2023-03-11T02:39:48.007Z,2.00
2023-03-11T02:42:35.039Z,1.73
2023-03-11T02:45:08.112Z,1.80
2023-03-11T02:47:37.643Z,1.80
2023-03-11T02:50:05.834Z,1.90
2023-03-11T02:52:34.524Z,1.80
2023-03-11T02:55:01.245Z,2.17
2023-03-11T02:57:28.054Z,2.17
2023-03-11T02:59:54.817Z,1.97
2023-03-11T03:02:21.532Z,2.20
2023-03-11T03:04:48.281Z,2.37
2023-03-11T03:07:15.020Z,1.77
2023-03-11T03:09:41.776Z,2.20
2023-03-11T03:12:08.619Z,2.30
2023-03-11T03:14:35.385Z,1.93
2023-03-11T03:17:02.560Z,1.87
2023-03-11T03:19:29.337Z,2.70
2023-03-11T03:21:56.061Z,2.43
2023-03-11T03:24:22.797Z,2.30
2023-03-11T03:26:49.578Z,2.20
2023-03-11T03:29:16.326Z,2.30
2023-03-11T03:31:43.131Z,1.97
2023-03-11T03:34:09.986Z,1.90
2023-03-11T03:36:36.820Z,2.40
2023-03-11T03:39:05.127Z,2.10
2023-03-11T03:41:32.255Z,2.33
2023-03-11T03:43:59.095Z,2.03
2023-03-11T03:46:26.307Z,2.13
2023-03-11T03:48:53.060Z,2.10
2023-03-11T03:51:19.844Z,2.23
2023-03-11T03:53:46.654Z,2.30
2023-03-11T03:56:16.511Z,2.30
2023-03-11T03:58:43.654Z,1.97
2023-03-11T04:01:13.535Z,4.20
2023-03-11T04:03:40.803Z,2.03
2023-03-11T04:06:10.287Z,2.30
2023-03-11T04:08:37.821Z,2.40
2023-03-11T04:11:04.766Z,1.97
2023-03-11T04:13:31.753Z,1.97
2023-03-11T04:15:58.622Z,1.97
2023-03-11T04:18:25.498Z,1.80
2023-03-11T04:20:52.213Z,1.83
2023-03-11T04:23:18.946Z,2.07
2023-03-11T04:25:45.634Z,2.27
2023-03-11T04:28:12.449Z,1.80
2023-03-11T04:30:40.133Z,2.10
2023-03-11T04:33:07.211Z,1.80
2023-03-11T04:35:34.049Z,1.80
2023-03-11T04:38:00.882Z,1.70
2023-03-11T04:40:28.347Z,1.40
2023-03-11T04:42:55.150Z,1.30
2023-03-11T04:45:21.849Z,1.27
2023-03-11T04:47:50.086Z,1.30
2023-03-11T04:50:18.184Z,1.47
2023-03-11T04:52:45.786Z,1.50
2023-03-11T04:55:13.823Z,1.47
2023-03-11T04:57:41.398Z,1.10
2023-03-11T05:00:11.529Z,1.20
2023-03-11T05:02:39.611Z,1.17
2023-03-11T05:05:08.424Z,1.00
2023-03-11T05:07:35.997Z,0.90
2023-03-11T05:10:04.517Z,1.13
2023-03-11T05:12:31.191Z,1.17
2023-03-11T05:14:57.874Z,0.93
2023-03-11T05:17:24.895Z,1.00
2023-03-11T05:19:53.665Z,1.10
2023-03-11T05:22:21.670Z,0.80
2023-03-11T05:24:48.810Z,1.20
2023-03-11T05:27:19.928Z,0.90
2023-03-11T05:29:46.876Z,1.97
2023-03-11T05:32:14.162Z,1.40
2023-03-11T05:34:41.005Z,1.53
2023-03-11T05:37:08.042Z,3.70
2023-03-11T05:39:35.185Z,6.93
2023-03-11T05:42:01.890Z,2.13
2023-03-11T05:44:28.691Z,1.47
2023-03-11T05:46:55.505Z,1.80
2023-03-11T05:49:22.728Z,1.20
2023-03-11T05:51:50.735Z,1.20
2023-03-11T05:54:17.707Z,1.37
2023-03-11T05:56:45.499Z,1.43
2023-03-11T05:59:16.360Z,1.40
2023-03-11T06:01:44.115Z,1.50
2023-03-11T06:04:11.364Z,1.23
2023-03-11T06:06:41.577Z,1.33
2023-03-11T06:09:12.610Z,1.60
2023-03-11T06:11:39.500Z,1.33
2023-03-11T06:14:06.569Z,1.20
2023-03-11T06:16:33.345Z,1.70
2023-03-11T06:19:00.959Z,1.27
2023-03-11T06:21:28.097Z,1.37
2023-03-11T06:23:55.256Z,1.70
2023-03-11T06:26:23.220Z,1.73
2023-03-11T06:28:51.224Z,1.90
2023-03-11T06:31:27.053Z,1.73
2023-03-11T06:33:55.921Z,2.03
2023-03-11T06:36:23.468Z,2.30
2023-03-11T06:38:52.999Z,2.07
2023-03-11T06:41:20.097Z,2.30
2023-03-11T06:43:46.751Z,1.50
2023-03-11T06:46:20.068Z,1.50
2023-03-11T06:48:47.377Z,1.60
2023-03-11T06:51:14.445Z,1.70
2023-03-11T06:53:41.335Z,1.90
2023-03-11T06:56:13.327Z,1.73
2023-03-11T06:58:42.075Z,1.30
2023-03-11T07:01:18.805Z,1.60
2023-03-11T07:03:49.958Z,3.10
2023-03-11T07:06:19.446Z,1.90
2023-03-11T07:08:48.487Z,1.20
2023-03-11T07:11:21.450Z,1.70
2023-03-11T07:13:48.298Z,2.10
2023-03-11T07:16:20.963Z,1.93
2023-03-11T07:18:49.321Z,1.30
2023-03-11T07:21:18.998Z,1.40
2023-03-11T07:23:46.355Z,1.60
2023-03-11T07:26:14.368Z,1.50
2023-03-11T07:28:41.811Z,1.60
2023-03-11T07:31:14.640Z,1.20
2023-03-11T07:33:41.517Z,1.40
2023-03-11T07:36:10.696Z,1.60
2023-03-11T07:38:38.005Z,1.60
2023-03-11T07:41:05.133Z,1.50
2023-03-11T07:43:32.866Z,1.33
2023-03-11T07:46:08.853Z,1.60
2023-03-11T07:48:37.096Z,1.73
2023-03-11T07:51:06.700Z,1.50
2023-03-11T07:53:34.536Z,20.60
2023-03-11T07:56:02.192Z,4.07
2023-03-11T07:58:29.444Z,1.50
2023-03-11T08:00:56.990Z,1.40
2023-03-11T08:03:24.830Z,2.13
2023-03-11T08:05:52.227Z,1.63
2023-03-11T08:08:22.577Z,1.17
2023-03-11T08:10:49.256Z,1.37
2023-03-11T08:13:16.099Z,1.47
2023-03-11T08:15:42.890Z,1.43
2023-03-11T08:18:11.061Z,1.60
2023-03-11T08:20:38.973Z,1.77
2023-03-11T08:23:06.325Z,1.47
2023-03-11T08:25:33.082Z,1.67
2023-03-11T08:27:59.875Z,1.63
2023-03-11T08:30:26.635Z,1.67
2023-03-11T08:32:53.465Z,1.60
2023-03-11T08:35:20.328Z,1.77
2023-03-11T08:37:47.253Z,2.20
2023-03-11T08:40:14.708Z,1.80
2023-03-11T08:42:41.392Z,1.63
2023-03-11T08:45:09.222Z,2.00
2023-03-11T08:47:37.407Z,1.63
2023-03-11T08:50:07.091Z,2.00
2023-03-11T08:52:33.945Z,1.70
2023-03-11T08:55:00.780Z,1.63
2023-03-11T08:57:27.515Z,1.40
2023-03-11T08:59:54.357Z,1.87
2023-03-11T09:02:21.140Z,1.63
2023-03-11T09:04:47.882Z,1.97
2023-03-11T09:07:14.678Z,1.90
2023-03-11T09:09:41.442Z,1.97
2023-03-11T09:12:08.975Z,1.50
2023-03-11T09:14:39.467Z,1.40
2023-03-11T09:17:06.561Z,1.97
2023-03-11T09:19:33.376Z,1.80
2023-03-11T09:22:01.395Z,1.73
2023-03-11T09:24:28.559Z,1.90
2023-03-11T09:26:55.275Z,1.77
2023-03-11T09:29:22.086Z,1.47
2023-03-11T09:31:48.800Z,2.13
2023-03-11T09:34:16.289Z,1.60
2023-03-11T09:36:44.034Z,1.53
2023-03-11T09:39:11.134Z,1.83
2023-03-11T09:41:58.034Z,1.60
2023-03-11T09:44:39.693Z,1.60
2023-03-11T09:47:19.210Z,1.93
2023-03-11T09:50:05.996Z,1.50
2023-03-11T09:52:32.684Z,1.90
2023-03-11T09:55:03.359Z,1.63
2023-03-11T09:57:34.339Z,1.63
2023-03-11T10:00:04.411Z,1.60
2023-03-11T10:02:32.650Z,1.83
2023-03-11T10:05:26.572Z,1.70
2023-03-11T10:08:33.771Z,2.20
2023-03-11T10:11:24.347Z,1.60
2023-03-11T10:14:14.368Z,2.03
2023-03-11T10:17:12.459Z,1.50
2023-03-11T10:19:57.659Z,2.10
2023-03-11T10:22:45.779Z,1.67
2023-03-11T10:25:17.180Z,2.47
2023-03-11T10:27:47.956Z,1.73
2023-03-11T10:30:32.325Z,1.90
2023-03-11T10:33:25.741Z,2.07
2023-03-11T10:35:54.945Z,2.00
2023-03-11T10:38:31.291Z,2.33
2023-03-11T10:41:03.158Z,2.23
2023-03-11T10:43:38.887Z,3.43
2023-03-11T10:46:13.348Z,2.33
2023-03-11T10:48:40.047Z,2.10
2023-03-11T10:51:26.738Z,1.50
2023-03-11T10:53:56.063Z,1.57
2023-03-11T10:56:25.173Z,1.50
2023-03-11T10:58:51.909Z,1.53
2023-03-11T11:01:21.670Z,2.37
2023-03-11T11:03:50.964Z,1.70
2023-03-11T11:06:37.381Z,1.40
2023-03-11T11:09:22.282Z,1.30
2023-03-11T11:12:05.956Z,1.53
2023-03-11T11:14:51.123Z,1.53
2023-03-11T11:17:23.355Z,1.63
2023-03-11T11:19:51.131Z,1.80
2023-03-11T11:22:20.887Z,1.70
2023-03-11T11:24:51.238Z,1.67
2023-03-11T11:27:24.985Z,1.60
2023-03-11T11:30:17.989Z,2.30
2023-03-11T11:32:44.734Z,2.73
2023-03-11T11:35:19.898Z,1.80
2023-03-11T11:37:49.962Z,2.10
2023-03-11T11:40:16.791Z,3.57
2023-03-11T11:42:52.068Z,2.43
2023-03-11T11:45:44.893Z,1.93
2023-03-11T11:48:17.363Z,1.83
2023-03-11T11:50:49.003Z,2.03
2023-03-11T11:53:56.416Z,2.07
2023-03-11T11:56:25.612Z,1.87
2023-03-11T11:58:55.384Z,2.23
2023-03-11T12:01:47.966Z,2.93
2023-03-11T12:04:45.258Z,2.27
2023-03-11T12:07:31.918Z,2.10
2023-03-11T12:10:27.030Z,4.00
2023-03-11T12:13:29.084Z,4.40
2023-03-11T12:16:14.577Z,2.47
2023-03-11T12:18:45.508Z,1.93
2023-03-11T12:21:43.155Z,2.20
2023-03-11T12:24:40.715Z,2.30
2023-03-11T12:27:24.409Z,1.90
2023-03-11T12:30:04.899Z,1.83
2023-03-11T12:32:36.756Z,2.00
2023-03-11T12:35:19.220Z,1.80
2023-03-11T12:37:46.633Z,1.70
2023-03-11T12:40:44.000Z,1.77
2023-03-11T12:43:43.141Z,1.80
2023-03-11T12:46:11.914Z,2.00
2023-03-11T12:49:06.641Z,2.20
2023-03-11T12:51:37.612Z,1.87
2023-03-11T12:54:31.653Z,2.10
2023-03-11T12:57:16.351Z,1.97
2023-03-11T13:00:01.714Z,2.20
2023-03-11T13:02:55.832Z,2.10
2023-03-11T13:05:31.566Z,2.30
2023-03-11T13:08:07.864Z,2.50
2023-03-11T13:10:47.432Z,2.20
2023-03-11T13:13:32.480Z,2.20
2023-03-11T13:16:19.349Z,2.13
2023-03-11T13:18:49.026Z,2.20
2023-03-11T13:21:28.114Z,2.37
2023-03-11T13:24:20.037Z,2.00
2023-03-11T13:26:51.172Z,1.97
2023-03-11T13:29:47.658Z,2.50
2023-03-11T13:32:50.804Z,2.60
2023-03-11T13:35:39.039Z,2.30
2023-03-11T13:38:35.313Z,2.47
2023-03-11T13:41:04.028Z,2.37
2023-03-11T13:43:30.867Z,2.13
2023-03-11T13:46:40.209Z,2.20
2023-03-11T13:49:14.768Z,2.33
2023-03-11T13:51:45.317Z,2.30
2023-03-11T13:54:19.985Z,2.10
2023-03-11T13:56:51.557Z,2.23
2023-03-11T13:59:22.682Z,2.20
2023-03-11T14:01:50.725Z,1.90
2023-03-11T14:04:25.385Z,2.07
2023-03-11T14:06:52.581Z,1.97
2023-03-11T14:09:21.256Z,2.07
2023-03-11T14:11:48.963Z,2.20
2023-03-11T14:14:40.917Z,1.93
2023-03-11T14:17:15.531Z,2.00
2023-03-11T14:19:42.985Z,1.77
2023-03-11T14:22:10.865Z,2.00
2023-03-11T14:24:38.914Z,1.97
2023-03-11T14:27:09.565Z,1.80
2023-03-11T14:29:39.759Z,2.10
2023-03-11T14:32:35.902Z,2.20
2023-03-11T14:35:18.155Z,2.47
2023-03-11T14:37:45.002Z,1.90
2023-03-11T14:40:33.231Z,2.13
2023-03-11T14:43:06.295Z,1.80
2023-03-11T14:45:37.248Z,1.63
2023-03-11T14:48:40.103Z,2.07
2023-03-11T14:51:17.205Z,1.97
2023-03-11T14:53:53.241Z,1.80
2023-03-11T14:56:24.560Z,2.03
2023-03-11T14:59:07.594Z,1.87
2023-03-11T15:01:41.019Z,2.37
2023-03-11T15:04:37.969Z,1.80
2023-03-11T15:07:05.283Z,1.90
2023-03-11T15:09:32.611Z,1.63
2023-03-11T15:12:04.246Z,1.67
2023-03-11T15:14:35.686Z,2.43
2023-03-11T15:17:33.798Z,2.07
2023-03-11T15:20:02.407Z,2.10
2023-03-11T15:22:34.642Z,2.20
2023-03-11T15:25:05.259Z,2.03
2023-03-11T15:27:33.378Z,2.20
2023-03-11T15:30:01.961Z,2.20
2023-03-11T15:32:31.710Z,2.77
2023-03-11T15:35:18.658Z,2.73
2023-03-11T15:37:47.588Z,2.93
2023-03-11T15:40:35.267Z,1.77
2023-03-11T15:43:15.292Z,2.00
2023-03-11T15:45:45.105Z,1.90
2023-03-11T15:48:13.154Z,2.10
2023-03-11T15:50:53.804Z,2.47
2023-03-11T15:53:22.396Z,1.97
2023-03-11T15:55:49.731Z,1.60
2023-03-11T15:58:18.595Z,1.97
2023-03-11T16:00:54.292Z,1.90
2023-03-11T16:03:21.111Z,2.23
2023-03-11T16:05:48.634Z,2.00
2023-03-11T16:08:15.843Z,1.70
2023-03-11T16:10:43.017Z,2.20
2023-03-11T16:13:14.062Z,2.37
2023-03-11T16:15:42.231Z,1.83
2023-03-11T16:18:09.968Z,2.30
2023-03-11T16:20:49.661Z,2.20
2023-03-11T16:23:26.309Z,2.80
2023-03-11T16:26:02.043Z,2.50
2023-03-11T16:28:28.820Z,2.10
2023-03-11T16:30:55.809Z,2.30
2023-03-11T16:33:22.872Z,2.17
2023-03-11T16:35:49.885Z,2.17
2023-03-11T16:38:19.312Z,2.13
2023-03-11T16:40:54.686Z,2.17
2023-03-11T16:43:21.409Z,2.13
2023-03-11T16:45:48.150Z,2.20
2023-03-11T16:48:14.890Z,2.00
2023-03-11T16:50:41.662Z,2.00
2023-03-11T16:53:08.367Z,2.10
2023-03-11T16:55:35.237Z,2.30
2023-03-11T16:58:02.086Z,2.07
2023-03-11T17:00:28.981Z,5.57
2023-03-11T17:02:55.701Z,2.33
2023-03-11T17:05:22.647Z,2.47
2023-03-11T17:07:53.617Z,1.63
2023-03-11T17:10:20.548Z,2.70
2023-03-11T17:12:47.280Z,1.80
2023-03-11T17:15:14.096Z,2.10
2023-03-11T17:17:40.858Z,2.40
2023-03-11T17:20:08.924Z,2.27
2023-03-11T17:22:36.026Z,2.33
2023-03-11T17:25:03.255Z,4.30
2023-03-11T17:27:32.500Z,2.37
2023-03-11T17:30:00.652Z,2.73
2023-03-11T17:32:28.164Z,3.03
2023-03-11T17:34:55.084Z,4.23
2023-03-11T17:37:22.428Z,4.33
2023-03-11T17:39:49.341Z,3.03
2023-03-11T17:42:19.335Z,3.00
2023-03-11T17:44:51.784Z,3.20
2023-03-11T17:47:20.044Z,3.57
2023-03-11T17:49:47.900Z,3.30
2023-03-11T17:52:14.756Z,2.70
2023-03-11T17:54:41.448Z,2.70
2023-03-11T17:57:08.218Z,2.83
2023-03-11T17:59:35.108Z,2.90
2023-03-11T18:02:02.144Z,2.40
2023-03-11T18:04:29.206Z,2.60
2023-03-11T18:06:56.571Z,3.30
2023-03-11T18:09:23.389Z,3.00
2023-03-11T18:11:50.142Z,2.70
2023-03-11T18:14:17.002Z,3.47
2023-03-11T18:16:43.813Z,12.60
2023-03-11T18:19:10.676Z,9.00
2023-03-11T18:21:37.434Z,3.20
2023-03-11T18:24:04.389Z,3.63
2023-03-11T18:26:31.623Z,2.90
2023-03-11T18:28:59.919Z,4.50
2023-03-11T18:31:28.555Z,3.57
2023-03-11T18:33:58.341Z,5.50
2023-03-11T18:36:34.458Z,3.10
2023-03-11T18:39:01.742Z,3.00
2023-03-11T18:41:31.940Z,3.10
2023-03-11T18:43:59.288Z,2.90
2023-03-11T18:46:29.177Z,3.53
2023-03-11T18:48:57.674Z,3.37
2023-03-11T18:51:25.507Z,3.47
2023-03-11T18:53:52.259Z,3.30
2023-03-11T18:56:19.326Z,3.33
2023-03-11T18:58:46.256Z,2.57
2023-03-11T19:01:16.152Z,3.27
2023-03-11T19:03:44.538Z,2.60
2023-03-11T19:06:13.079Z,3.50
2023-03-11T19:08:40.469Z,3.13
2023-03-11T19:11:12.205Z,3.73
2023-03-11T19:13:46.964Z,3.33
2023-03-11T19:16:16.193Z,3.87
2023-03-11T19:18:43.363Z,3.60
2023-03-11T19:21:12.591Z,3.73
2023-03-11T19:23:39.616Z,4.10
2023-03-11T19:26:06.957Z,3.77
2023-03-11T19:28:33.985Z,4.13
2023-03-11T19:31:00.777Z,3.43
2023-03-11T19:33:30.782Z,4.27
2023-03-11T19:36:00.097Z,4.67
2023-03-11T19:38:27.790Z,5.97
2023-03-11T19:41:06.713Z,7.23
2023-03-11T19:43:35.690Z,7.03
2023-03-11T19:46:03.968Z,7.70
2023-03-11T19:48:31.418Z,4.63
2023-03-11T19:51:00.855Z,43.57
2023-03-11T19:53:28.031Z,10.57
2023-03-11T19:55:56.544Z,28.47
2023-03-11T19:58:29.491Z,11.93
2023-03-11T20:00:58.095Z,7.70
2023-03-11T20:03:24.902Z,4.60
2023-03-11T20:05:54.504Z,4.17
2023-03-11T20:08:22.410Z,4.43
2023-03-11T20:10:50.940Z,3.73
2023-03-11T20:13:22.737Z,3.80
2023-03-11T20:15:50.085Z,4.20
2023-03-11T20:18:18.003Z,4.60
2023-03-11T20:20:45.536Z,5.33
2023-03-11T20:23:12.893Z,4.80
2023-03-11T20:25:41.132Z,4.90
2023-03-11T20:28:08.643Z,5.60
2023-03-11T20:30:38.123Z,5.37
2023-03-11T20:33:05.226Z,5.10
2023-03-11T20:35:32.160Z,5.17
2023-03-11T20:37:59.474Z,4.93
2023-03-11T20:40:26.346Z,5.33
2023-03-11T20:42:53.152Z,4.73
2023-03-11T20:45:21.867Z,10.90
2023-03-11T20:47:50.347Z,7.17
2023-03-11T20:50:17.581Z,26.13
2023-03-11T20:52:44.696Z,15.60
2023-03-11T20:55:11.978Z,6.50
2023-03-11T20:57:39.905Z,23.03
2023-03-11T21:00:13.250Z,85.13
2023-03-11T21:02:41.627Z,46.77
2023-03-11T21:05:09.512Z,7.17
2023-03-11T21:07:36.281Z,6.50
2023-03-11T21:10:05.805Z,19.70
2023-03-11T21:12:32.680Z,6.70
2023-03-11T21:14:59.590Z,7.20
2023-03-11T21:17:26.526Z,6.63
2023-03-11T21:19:53.538Z,7.80
2023-03-11T21:22:20.243Z,11.03
2023-03-11T21:24:52.129Z,11.10
2023-03-11T21:27:25.776Z,12.40
2023-03-11T21:29:53.779Z,11.47
2023-03-11T21:32:20.796Z,10.13
2023-03-11T21:34:47.830Z,9.67
2023-03-11T21:37:14.874Z,11.50
2023-03-11T21:39:41.872Z,10.47
2023-03-11T21:42:08.706Z,10.37
2023-03-11T21:44:35.467Z,11.33
2023-03-11T21:47:02.228Z,11.07
2023-03-11T21:49:29.330Z,11.27
2023-03-11T21:51:56.103Z,11.70
2023-03-11T21:54:23.127Z,11.67
2023-03-11T21:56:50.170Z,11.97
2023-03-11T21:59:17.189Z,11.30
2023-03-11T22:01:44.215Z,11.40
2023-03-11T22:04:11.169Z,10.73
2023-03-11T22:06:38.024Z,10.23
2023-03-11T22:09:04.982Z,11.27
2023-03-11T22:11:31.945Z,9.00
2023-03-11T22:14:00.684Z,7.93
2023-03-11T22:16:27.646Z,9.00
2023-03-11T22:18:54.642Z,9.07
2023-03-11T22:21:21.743Z,7.83
2023-03-11T22:23:48.601Z,8.43
2023-03-11T22:26:15.957Z,8.50
2023-03-11T22:28:43.485Z,9.07
2023-03-11T22:31:12.919Z,9.80
2023-03-11T22:33:40.391Z,10.87
2023-03-11T22:36:09.196Z,9.63
2023-03-11T22:38:37.066Z,10.60
2023-03-11T22:41:07.872Z,9.67
2023-03-11T22:43:35.218Z,9.40
2023-03-11T22:46:02.790Z,10.57
2023-03-11T22:48:29.616Z,9.70
2023-03-11T22:50:56.629Z,8.90
2023-03-11T22:53:24.952Z,9.20
2023-03-11T22:55:52.750Z,8.77
2023-03-11T22:58:19.976Z,9.20
2023-03-11T23:00:46.819Z,9.77
2023-03-11T23:03:13.890Z,8.53
2023-03-11T23:05:42.214Z,9.17
2023-03-11T23:08:11.057Z,9.87
2023-03-11T23:10:44.028Z,10.60
2023-03-11T23:13:11.001Z,9.63
2023-03-11T23:15:43.976Z,9.60
2023-03-11T23:18:11.827Z,9.13
2023-03-11T23:20:41.548Z,10.37
2023-03-11T23:23:09.923Z,10.00
2023-03-11T23:25:36.796Z,10.10
2023-03-11T23:28:04.565Z,9.37
2023-03-11T23:30:32.096Z,10.10
2023-03-11T23:32:59.498Z,10.40
2023-03-11T23:35:26.291Z,10.13
2023-03-11T23:37:53.101Z,11.97
2023-03-11T23:40:19.852Z,14.07
2023-03-11T23:42:46.641Z,10.83
2023-03-11T23:45:13.317Z,9.50
2023-03-11T23:47:40.082Z,9.37
2023-03-11T23:50:07.139Z,8.93
2023-03-11T23:52:37.016Z,9.40
2023-03-11T23:55:03.931Z,8.37
2023-03-11T23:57:30.626Z,9.27
2023-03-11T23:59:57.385Z,8.60
